Time;durP1;ratioP1;P1;durP2;ratioP2;P2;SDS_P1;SDS_P2;PMS_P1;PMS_P2;Temp;Humidity;BMP_temperature;BMP_pressure;BME280_temperature;BME280_humidity;BME280_pressure;Samples;Min_cycle;Max_cycle;Signal;HPM_P1;HPM_P2
2022/11/03 00:01:34;;;;;;;20.40;4.05;;;13.20;99.90;;;;;;5072428;28;20043;-67
2022/11/03 00:04:00;;;;;;;20.42;3.80;;;13.10;99.90;;;;;;5072296;28;20131;-67
2022/11/03 00:06:26;;;;;;;16.27;3.28;;;13.10;99.90;;;;;;5072059;28;20078;-67
2022/11/03 00:08:52;;;;;;;17.05;3.10;;;13.10;99.90;;;;;;5072367;28;20451;-67
2022/11/03 00:11:18;;;;;;;21.30;3.17;;;13.20;99.90;;;;;;5072197;28;20047;-67
2022/11/03 00:13:43;;;;;;;13.27;3.67;;;13.10;99.90;;;;;;5073675;28;20023;-67
2022/11/03 00:16:11;;;;;;;13.00;3.30;;;13.20;99.90;;;;;;5075849;28;20047;-67
2022/11/03 00:18:37;;;;;;;17.10;3.40;;;13.10;99.90;;;;;;5075991;28;20052;-67
2022/11/03 00:21:09;;;;;;;14.35;3.45;;;13.00;99.90;;;;;;5075834;28;20041;-67
2022/11/03 00:23:38;;;;;;;21.88;3.42;;;13.00;99.90;;;;;;5075855;28;20068;-67
2022/11/03 00:26:14;;;;;;;19.42;3.38;;;12.90;99.90;;;;;;5075622;28;20021;-67
2022/11/03 00:28:42;;;;;;;16.60;3.30;;;13.00;99.90;;;;;;5075549;28;20028;-67
2022/11/03 00:31:24;;;;;;;18.80;3.90;;;13.00;99.90;;;;;;5075731;28;20036;-67
2022/11/03 00:33:51;;;;;;;16.60;4.15;;;13.00;99.90;;;;;;5074285;28;20031;-67
2022/11/03 00:36:22;;;;;;;14.88;3.45;;;12.90;99.90;;;;;;5063852;28;20089;-67
2022/11/03 00:38:48;;;;;;;18.83;3.30;;;13.00;99.90;;;;;;5075560;28;20044;-67
2022/11/03 00:41:19;;;;;;;22.88;5.15;;;12.90;99.90;;;;;;5075520;28;20036;-67
2022/11/03 00:43:46;;;;;;;20.07;4.20;;;12.90;99.90;;;;;;5075523;28;20033;-67
2022/11/03 00:46:12;;;;;;;13.18;3.38;;;12.90;99.90;;;;;;5075213;28;20026;-67
2022/11/03 00:48:38;;;;;;;15.45;3.30;;;12.90;99.90;;;;;;5075500;28;20051;-67
2022/11/03 00:51:11;;;;;;;19.83;3.33;;;12.80;99.90;;;;;;5075176;28;20113;-67
2022/11/03 00:53:39;;;;;;;23.45;4.18;;;12.90;99.90;;;;;;5075558;28;20154;-67
2022/11/03 00:56:06;;;;;;;22.20;3.63;;;12.90;99.90;;;;;;5074829;28;20016;-67
2022/11/03 00:58:32;;;;;;;19.63;3.33;;;12.90;99.90;;;;;;5074111;28;20099;-67
2022/11/03 01:01:01;;;;;;;19.33;3.90;;;12.90;99.90;;;;;;5074943;28;20040;-67
2022/11/03 01:03:27;;;;;;;17.52;3.78;;;12.90;99.90;;;;;;5075230;28;20028;-67
2022/11/03 01:08:37;;;;;;;17.30;3.33;;;12.90;99.90;;;;;;5075128;28;20028;-67
2022/11/03 01:13:57;;;;;;;23.10;4.72;;;12.90;99.90;;;;;;5074940;28;20476;-68
2022/11/03 01:16:23;;;;;;;25.58;4.10;;;12.80;99.90;;;;;;5074869;28;20028;-67
2022/11/03 01:18:49;;;;;;;14.68;3.22;;;12.80;99.90;;;;;;5074721;28;20032;-67
2022/11/03 01:21:15;;;;;;;16.67;3.03;;;12.90;99.90;;;;;;5074696;28;20036;-67
2022/11/03 01:23:41;;;;;;;19.42;3.70;;;12.90;99.90;;;;;;5073310;28;20397;-67
2022/11/03 01:26:09;;;;;;;17.00;4.53;;;12.90;99.90;;;;;;5074647;28;20032;-67
2022/11/03 01:28:37;;;;;;;15.52;3.78;;;12.90;99.90;;;;;;5074607;28;20032;-67
2022/11/03 01:31:04;;;;;;;17.38;4.15;;;12.80;99.90;;;;;;5074765;28;20423;-67
2022/11/03 01:33:30;;;;;;;18.65;3.70;;;12.80;99.90;;;;;;5073174;28;20476;-67
2022/11/03 01:35:56;;;;;;;21.42;3.80;;;12.90;99.90;;;;;;5074495;28;20036;-68
2022/11/03 01:38:21;;;;;;;16.42;3.80;;;12.80;99.90;;;;;;5057922;28;20053;-67
2022/11/03 01:40:47;;;;;;;18.13;3.47;;;12.80;99.90;;;;;;5068603;28;20040;-67
2022/11/03 01:43:22;;;;;;;19.98;4.00;;;12.90;99.90;;;;;;5074227;28;20381;-67
2022/11/03 01:46:01;;;;;;;14.63;3.45;;;12.90;99.90;;;;;;5074265;28;20445;-67
2022/11/03 01:48:28;;;;;;;16.75;3.53;;;13.10;99.90;;;;;;5073255;28;20488;-67
2022/11/03 01:50:54;;;;;;;14.45;3.40;;;13.00;99.90;;;;;;5074291;28;20472;-67
2022/11/03 01:53:21;;;;;;;11.70;2.72;;;12.90;99.90;;;;;;5074340;28;20039;-67
2022/11/03 01:55:48;;;;;;;16.35;3.80;;;12.90;99.90;;;;;;5073713;28;20032;-67
2022/11/03 01:58:22;;;;;;;16.63;2.58;;;12.90;99.90;;;;;;5074174;28;20062;-67
2022/11/03 02:00:53;;;;;;;15.75;3.70;;;12.90;99.90;;;;;;5073996;28;20043;-67
2022/11/03 02:03:20;;;;;;;23.25;3.42;;;12.80;99.90;;;;;;5073688;28;20029;-67
2022/11/03 02:05:48;;;;;;;15.07;3.58;;;12.70;99.90;;;;;;5074230;28;20130;-67
2022/11/03 02:08:33;;;;;;;20.65;3.88;;;12.80;99.90;;;;;;5073611;28;20025;-67
2022/11/03 02:10:58;;;;;;;17.98;3.72;;;12.80;99.90;;;;;;5073900;28;20039;-67
2022/11/03 02:13:26;;;;;;;17.92;4.05;;;12.90;99.90;;;;;;5073436;28;20016;-67
2022/11/03 02:15:55;;;;;;;16.63;2.80;;;12.80;99.90;;;;;;5073863;28;20064;-67
2022/11/03 02:18:25;;;;;;;20.73;4.00;;;12.80;99.90;;;;;;5073626;28;20108;-67
2022/11/03 02:21:12;;;;;;;20.17;3.15;;;12.80;99.90;;;;;;5073522;28;20056;-67
2022/11/03 02:23:37;;;;;;;19.40;3.78;;;12.90;99.90;;;;;;5073251;28;20420;-67
2022/11/03 02:26:07;;;;;;;17.33;4.13;;;12.90;99.90;;;;;;5073333;28;20040;-67
2022/11/03 02:28:33;;;;;;;14.82;3.72;;;12.90;99.90;;;;;;5073454;28;20032;-67
2022/11/03 02:31:13;;;;;;;19.17;3.58;;;12.90;99.90;;;;;;5073617;28;20033;-67
2022/11/03 02:33:42;;;;;;;17.55;4.18;;;12.80;99.90;;;;;;5073237;28;20462;-67
2022/11/03 02:36:19;;;;;;;13.57;3.13;;;12.80;99.90;;;;;;5072746;28;20113;-67
2022/11/03 02:38:57;;;;;;;20.80;3.75;;;12.80;99.90;;;;;;5071647;28;20036;-67
2022/11/03 02:41:25;;;;;;;17.70;3.65;;;12.80;99.90;;;;;;5073364;28;20477;-67
2022/11/03 02:43:53;;;;;;;20.55;3.95;;;12.80;99.90;;;;;;5072898;28;20025;-67
2022/11/03 02:46:19;;;;;;;14.73;3.67;;;12.80;99.90;;;;;;5073033;28;20372;-67
2022/11/03 02:48:47;;;;;;;19.40;3.03;;;12.80;99.90;;;;;;5071850;28;20512;-67
2022/11/03 02:51:12;;;;;;;15.85;2.92;;;12.80;99.90;;;;;;5073059;28;20027;-67
2022/11/03 02:54:04;;;;;;;19.13;3.97;;;12.70;99.90;;;;;;5072783;28;20025;-68
2022/11/03 02:56:37;;;;;;;20.00;3.20;;;12.80;99.90;;;;;;5073219;28;20032;-67
2022/11/03 02:59:16;;;;;;;16.58;3.65;;;12.90;99.90;;;;;;5071878;28;20028;-68
2022/11/03 03:01:47;;;;;;;23.30;3.60;;;12.80;99.90;;;;;;5072898;28;20032;-67
2022/11/03 03:04:42;;;;;;;14.68;3.13;;;12.80;99.90;;;;;;5073199;28;20079;-67
2022/11/03 03:07:18;;;;;;;19.75;3.75;;;12.80;99.90;;;;;;5071110;28;20086;-67
2022/11/03 03:09:52;;;;;;;14.75;3.72;;;12.80;99.90;;;;;;5072859;28;20465;-67
2022/11/03 03:12:19;;;;;;;18.27;3.83;;;12.90;99.90;;;;;;5073156;28;20116;-67
2022/11/03 03:14:47;;;;;;;19.73;3.58;;;12.90;99.90;;;;;;5072775;28;20477;-67
2022/11/03 03:17:33;;;;;;;21.13;3.95;;;12.80;99.90;;;;;;5072625;28;20477;-67
2022/11/03 03:20:08;;;;;;;13.25;3.10;;;12.90;99.90;;;;;;5072776;28;20037;-66
2022/11/03 03:22:42;;;;;;;16.48;3.72;;;12.90;99.90;;;;;;5072555;28;20032;-67
2022/11/03 03:25:24;;;;;;;20.33;3.33;;;12.90;99.90;;;;;;5072523;28;20057;-67
2022/11/03 03:27:57;;;;;;;14.02;2.85;;;12.90;99.90;;;;;;5072601;28;20484;-67
2022/11/03 03:30:23;;;;;;;11.10;2.65;;;12.90;99.90;;;;;;5072598;28;20146;-67
2022/11/03 03:32:51;;;;;;;18.55;3.35;;;12.90;99.90;;;;;;5072767;28;20042;-67
2022/11/03 03:35:23;;;;;;;19.08;3.75;;;12.90;99.90;;;;;;5072367;28;20037;-67
2022/11/03 03:37:53;;;;;;;15.80;3.38;;;12.90;99.90;;;;;;5072744;28;20404;-67
2022/11/03 03:40:28;;;;;;;18.48;3.50;;;13.00;99.90;;;;;;5072387;28;20036;-67
2022/11/03 03:42:55;;;;;;;15.77;3.30;;;13.00;99.90;;;;;;5062556;28;20021;-67
2022/11/03 03:45:23;;;;;;;15.57;3.97;;;13.00;99.90;;;;;;5052204;28;20013;-67
2022/11/03 03:47:49;;;;;;;22.02;3.25;;;13.00;99.90;;;;;;5051796;28;20032;-67
2022/11/03 03:50:15;;;;;;;15.55;3.63;;;12.90;99.90;;;;;;5056003;28;20500;-67
2022/11/03 03:52:41;;;;;;;10.90;2.85;;;12.90;99.90;;;;;;5056624;28;20490;-67
2022/11/03 03:55:14;;;;;;;15.07;3.25;;;13.00;99.90;;;;;;5056590;28;20064;-67
2022/11/03 03:57:40;;;;;;;18.38;2.60;;;13.00;99.90;;;;;;5056685;28;20508;-67
2022/11/03 04:00:07;;;;;;;18.73;3.38;;;13.00;99.90;;;;;;5056147;28;20048;-67
2022/11/03 04:02:38;;;;;;;12.32;3.40;;;13.00;99.90;;;;;;5056580;28;20044;-67
2022/11/03 04:05:04;;;;;;;13.20;3.72;;;13.00;99.90;;;;;;5055777;28;20420;-67
2022/11/03 04:07:48;;;;;;;17.33;2.83;;;13.00;99.90;;;;;;5056359;28;20111;-68
2022/11/03 04:10:15;;;;;;;17.83;3.42;;;12.90;99.90;;;;;;5056267;28;20033;-67
2022/11/03 04:23:41;;;;;;;13.93;3.35;;;13.10;99.90;;;;;;5055916;28;20036;-67
2022/11/03 04:26:12;;;;;;;21.35;2.67;;;13.00;99.90;;;;;;5054695;28;20385;-67
2022/11/03 04:28:39;;;;;;;20.05;3.67;;;13.10;99.90;;;;;;5055820;28;20033;-67
2022/11/03 04:31:16;;;;;;;15.50;3.55;;;13.10;99.90;;;;;;5055980;28;20048;-68
2022/11/03 04:33:43;;;;;;;9.60;2.58;;;13.10;99.90;;;;;;5055325;28;20041;-68
2022/11/03 04:36:20;;;;;;;16.10;3.88;;;13.10;99.90;;;;;;5054333;28;20037;-67
2022/11/03 04:38:47;;;;;;;16.77;3.13;;;13.10;99.90;;;;;;5055592;28;20473;-67
2022/11/03 04:41:32;;;;;;;11.43;2.83;;;13.10;99.90;;;;;;5055388;28;20041;-67
2022/11/03 04:43:58;;;;;;;12.25;3.25;;;13.10;99.90;;;;;;5055448;28;20025;-67
2022/11/03 04:46:28;;;;;;;15.70;3.28;;;13.20;99.90;;;;;;5055451;28;20025;-67
2022/11/03 04:48:57;;;;;;;17.42;3.20;;;13.10;99.90;;;;;;5055210;28;20076;-67
2022/11/03 04:51:26;;;;;;;20.98;3.25;;;13.20;99.90;;;;;;5055296;28;20021;-67
2022/11/03 04:53:55;;;;;;;15.55;2.80;;;13.20;99.90;;;;;;5055468;28;20485;-67
2022/11/03 04:56:23;;;;;;;14.32;3.20;;;13.20;99.90;;;;;;5055251;28;20045;-67
2022/11/03 04:58:50;;;;;;;17.27;3.13;;;13.20;99.90;;;;;;5054863;28;20115;-67
2022/11/03 05:01:21;;;;;;;16.27;3.45;;;13.20;99.90;;;;;;5053786;28;20036;-67
2022/11/03 05:03:50;;;;;;;15.88;2.90;;;13.30;99.90;;;;;;5055316;28;20029;-67
2022/11/03 05:06:28;;;;;;;13.75;3.08;;;13.10;99.90;;;;;;5054881;28;20385;-68
2022/11/03 05:09:06;;;;;;;14.00;2.90;;;13.10;99.90;;;;;;5055196;28;20469;-68
2022/11/03 05:11:41;;;;;;;15.13;3.28;;;13.30;99.90;;;;;;5054838;28;20124;-67
2022/11/03 05:14:20;;;;;;;14.77;3.22;;;13.20;99.90;;;;;;5054986;28;20044;-67
2022/11/03 05:16:48;;;;;;;18.08;2.95;;;13.20;99.90;;;;;;5054903;28;20036;-67
2022/11/03 05:19:19;;;;;;;19.48;3.60;;;13.20;99.90;;;;;;5055107;28;20037;-67
2022/11/03 05:21:50;;;;;;;13.35;3.05;;;13.10;99.90;;;;;;5054724;28;20393;-67
2022/11/03 05:24:19;;;;;;;18.67;3.13;;;13.20;99.90;;;;;;5054890;28;20374;-68
2022/11/03 05:26:46;;;;;;;9.75;2.78;;;13.20;99.90;;;;;;5054660;28;20108;-68
2022/11/03 05:29:18;;;;;;;14.75;3.53;;;13.20;99.90;;;;;;5054842;28;20032;-66
2022/11/03 05:31:47;;;;;;;12.50;3.08;;;13.20;99.90;;;;;;5054316;28;20395;-68
2022/11/03 05:34:41;;;;;;;20.63;3.97;;;13.20;99.90;;;;;;5053310;28;20078;-66
2022/11/03 05:37:27;;;;;;;18.95;3.50;;;13.20;99.90;;;;;;5054414;28;20036;-66
2022/11/03 05:39:59;;;;;;;11.38;3.28;;;13.30;99.90;;;;;;5054621;28;20021;-68
2022/11/03 05:42:38;;;;;;;15.35;3.17;;;13.30;99.90;;;;;;5054364;28;20040;-66
2022/11/03 05:45:12;;;;;;;11.57;2.85;;;13.30;99.90;;;;;;5054301;28;20017;-68
2022/11/03 05:47:39;;;;;;;17.48;2.83;;;13.40;99.90;;;;;;5054448;28;20024;-66
2022/11/03 05:50:23;;;;;;;16.75;3.15;;;13.40;99.90;;;;;;5054447;28;20044;-68
2022/11/03 05:52:52;;;;;;;14.75;3.13;;;13.30;99.90;;;;;;5051637;28;20033;-66
2022/11/03 05:55:30;;;;;;;13.70;3.65;;;13.30;99.90;;;;;;5054284;28;20465;-67
2022/11/03 05:57:59;;;;;;;13.07;3.75;;;13.30;99.90;;;;;;5052853;28;20025;-66
2022/11/03 06:00:29;;;;;;;15.88;3.05;;;13.40;99.90;;;;;;5053849;28;20035;-68
2022/11/03 06:02:56;;;;;;;13.82;3.30;;;13.40;99.90;;;;;;5053851;28;20098;-66
2022/11/03 06:05:26;;;;;;;15.80;3.35;;;13.30;99.90;;;;;;5052928;28;20036;-66
2022/11/03 06:07:54;;;;;;;14.55;2.85;;;13.30;99.90;;;;;;5053677;28;20484;-66
2022/11/03 06:10:30;;;;;;;15.27;3.28;;;13.40;99.90;;;;;;5053315;28;20051;-66
2022/11/03 06:13:03;;;;;;;21.90;3.60;;;13.50;99.90;;;;;;5048720;28;20123;-67
2022/11/03 06:15:34;;;;;;;12.20;3.38;;;13.40;99.90;;;;;;5053495;28;20543;-67
2022/11/03 06:18:18;;;;;;;14.00;4.07;;;13.40;99.90;;;;;;5053616;28;20044;-66
2022/11/03 06:20:55;;;;;;;19.05;3.45;;;13.50;99.90;;;;;;5052590;28;20043;-66
2022/11/03 06:23:22;;;;;;;19.08;3.35;;;13.50;99.90;;;;;;5053554;28;20029;-66
2022/11/03 06:25:49;;;;;;;16.83;3.15;;;13.50;99.90;;;;;;5053707;28;20021;-66
2022/11/03 06:28:21;;;;;;;15.40;3.35;;;13.60;99.90;;;;;;5053488;28;20029;-67
2022/11/03 06:30:47;;;;;;;11.73;2.90;;;13.70;99.90;;;;;;5052059;28;20099;-66
2022/11/03 06:33:24;;;;;;;18.83;3.35;;;13.70;99.90;;;;;;5053328;28;20033;-66
2022/11/03 06:35:53;;;;;;;12.85;3.17;;;13.70;99.90;;;;;;5041187;28;20036;-67
2022/11/03 06:38:22;;;;;;;15.23;3.15;;;13.80;99.90;;;;;;5053626;28;20048;-67
2022/11/03 06:40:53;;;;;;;14.15;2.90;;;13.70;99.90;;;;;;5053233;28;20100;-67
2022/11/03 06:43:34;;;;;;;20.80;3.65;;;13.70;99.90;;;;;;5053233;28;20029;-67
2022/11/03 06:46:04;;;;;;;8.85;2.67;;;13.70;99.90;;;;;;5051774;28;20397;-66
2022/11/03 06:48:33;;;;;;;19.33;4.28;;;13.70;99.90;;;;;;5053320;28;20484;-66
2022/11/03 06:51:00;;;;;;;16.15;2.75;;;13.70;99.90;;;;;;5052978;28;20032;-67
2022/11/03 06:53:30;;;;;;;19.17;4.20;;;13.80;99.90;;;;;;5053047;28;20074;-66
2022/11/03 06:55:57;;;;;;;16.90;3.30;;;13.90;99.90;;;;;;5052894;28;20056;-66
2022/11/03 06:58:31;;;;;;;16.80;3.95;;;13.80;99.90;;;;;;5051167;28;20013;-67
2022/11/03 07:01:01;;;;;;;19.80;3.80;;;13.80;99.90;;;;;;5052625;28;20124;-67
2022/11/03 07:03:32;;;;;;;18.80;3.08;;;13.80;99.90;;;;;;5051196;28;20105;-66
2022/11/03 07:05:59;;;;;;;20.92;3.75;;;13.70;99.90;;;;;;5052674;28;20037;-66
2022/11/03 07:08:38;;;;;;;23.95;4.28;;;13.80;99.90;;;;;;5052326;28;20028;-67
2022/11/03 07:11:17;;;;;;;14.75;3.40;;;13.80;99.90;;;;;;5052731;28;20036;-68
2022/11/03 07:13:43;;;;;;;23.65;4.15;;;13.70;99.90;;;;;;5043977;28;20013;-67
2022/11/03 07:16:28;;;;;;;11.98;3.75;;;13.80;99.90;;;;;;5045231;28;20034;-68
2022/11/03 07:18:56;;;;;;;18.70;3.85;;;13.70;99.90;;;;;;5047543;28;20056;-67
2022/11/03 07:21:30;;;;;;;21.00;4.10;;;13.80;99.90;;;;;;5057505;28;20029;-67
2022/11/03 07:23:59;;;;;;;16.13;3.42;;;13.70;99.90;;;;;;5058704;28;20433;-68
2022/11/03 07:26:26;;;;;;;17.77;3.25;;;13.70;99.90;;;;;;5056682;28;20099;-67
2022/11/03 07:28:52;;;;;;;17.45;3.20;;;13.70;99.90;;;;;;5054184;28;20389;-67
2022/11/03 07:31:22;;;;;;;15.48;3.78;;;13.70;99.90;;;;;;5053126;28;20029;-67
2022/11/03 07:33:49;;;;;;;16.65;3.40;;;13.70;99.90;;;;;;5052458;28;20020;-67
2022/11/03 07:36:21;;;;;;;11.75;3.03;;;13.60;99.90;;;;;;5058112;28;20033;-67
2022/11/03 07:38:51;;;;;;;19.35;4.72;;;13.70;99.90;;;;;;5055750;28;20029;-67
2022/11/03 07:41:23;;;;;;;12.25;4.00;;;13.70;99.90;;;;;;5054252;28;20492;-66
2022/11/03 07:43:57;;;;;;;21.85;4.20;;;13.60;99.90;;;;;;5053734;28;20570;-67
2022/11/03 07:46:24;;;;;;;16.08;3.78;;;13.60;99.90;;;;;;5051295;28;20025;-66
2022/11/03 07:48:58;;;;;;;19.77;3.75;;;13.70;99.90;;;;;;5057380;28;20504;-67
2022/11/03 07:51:31;;;;;;;15.48;3.58;;;13.60;99.90;;;;;;5056959;28;20053;-67
2022/11/03 07:54:09;;;;;;;16.40;4.00;;;13.70;99.90;;;;;;5065847;28;20496;-67
2022/11/03 07:56:39;;;;;;;10.18;2.72;;;13.70;99.90;;;;;;5049193;28;20036;-67
2022/11/03 07:59:08;;;;;;;17.38;3.40;;;13.70;99.90;;;;;;5054440;28;20044;-67
2022/11/03 08:01:39;;;;;;;19.23;4.03;;;13.60;99.90;;;;;;5046159;28;20094;-67
2022/11/03 08:04:06;;;;;;;19.50;4.30;;;13.60;99.90;;;;;;5050949;28;20029;-67
2022/11/03 08:06:32;;;;;;;15.43;3.95;;;13.60;99.90;;;;;;5059330;28;20103;-67
2022/11/03 08:08:59;;;;;;;15.35;2.92;;;13.60;99.90;;;;;;5056952;28;20500;-68
2022/11/03 08:11:24;;;;;;;18.50;3.25;;;13.70;99.90;;;;;;5056906;28;20385;-67
2022/11/03 08:13:51;;;;;;;20.23;3.95;;;13.60;99.90;;;;;;5038684;28;20029;-67
2022/11/03 08:16:17;;;;;;;16.35;3.75;;;13.80;99.90;;;;;;5059104;28;20495;-67
2022/11/03 08:18:43;;;;;;;17.52;3.28;;;13.70;99.90;;;;;;5058061;28;20029;-67
2022/11/03 08:21:09;;;;;;;24.02;3.83;;;13.80;99.90;;;;;;5055599;28;20036;-67
2022/11/03 08:23:35;;;;;;;16.38;3.15;;;13.90;99.90;;;;;;5055276;28;20016;-67
2022/11/03 08:26:01;;;;;;;19.52;4.18;;;13.90;99.90;;;;;;5051889;28;20021;-67
2022/11/03 08:28:28;;;;;;;18.15;3.78;;;13.80;99.90;;;;;;5059673;28;20434;-67
2022/11/03 08:30:54;;;;;;;23.90;4.28;;;13.80;99.90;;;;;;5057340;28;20025;-67
2022/11/03 08:33:19;;;;;;;22.58;4.93;;;13.90;99.90;;;;;;5055025;28;20102;-67
2022/11/03 08:35:45;;;;;;;16.50;4.25;;;13.90;99.90;;;;;;5056832;28;20025;-67
2022/11/03 08:38:11;;;;;;;15.40;4.40;;;13.90;99.90;;;;;;5053903;28;20438;-67
2022/11/03 08:40:37;;;;;;;16.45;5.25;;;13.90;99.90;;;;;;5053344;28;20032;-67
2022/11/03 08:43:03;;;;;;;21.80;5.10;;;13.80;99.90;;;;;;5054998;28;20067;-67
2022/11/03 08:45:29;;;;;;;16.30;3.72;;;13.80;99.90;;;;;;5052588;28;20020;-67
2022/11/03 08:47:56;;;;;;;13.93;3.75;;;13.80;99.90;;;;;;5060781;28;20036;-67
2022/11/03 08:50:22;;;;;;;17.63;3.88;;;13.70;99.90;;;;;;5057390;28;20013;-67
2022/11/03 08:52:48;;;;;;;20.17;4.13;;;13.80;99.90;;;;;;5063923;28;20898;-67
2022/11/03 08:55:14;;;;;;;17.77;4.07;;;13.80;99.90;;;;;;5061739;28;20032;-67
2022/11/03 08:57:40;;;;;;;22.25;3.53;;;13.80;99.90;;;;;;5061477;28;20035;-67
2022/11/03 09:00:07;;;;;;;19.45;4.20;;;13.70;99.90;;;;;;5054709;28;20025;-67
2022/11/03 09:02:32;;;;;;;17.92;4.43;;;13.70;99.90;;;;;;5065344;28;20568;-67
2022/11/03 09:04:58;;;;;;;24.15;3.80;;;13.70;99.90;;;;;;5060078;28;20104;-67
2022/11/03 09:07:24;;;;;;;22.17;3.50;;;13.70;99.90;;;;;;5052625;28;20485;-67
2022/11/03 09:09:50;;;;;;;13.65;3.40;;;13.70;99.90;;;;;;5057021;28;20418;-67
2022/11/03 09:12:16;;;;;;;17.45;3.58;;;13.70;99.90;;;;;;5062929;28;20028;-67
2022/11/03 09:14:41;;;;;;;14.70;3.45;;;13.60;99.90;;;;;;5066422;28;20028;-67
2022/11/03 09:17:07;;;;;;;13.80;3.00;;;13.60;99.90;;;;;;5053398;28;20017;-67
2022/11/03 09:19:33;;;;;;;16.00;3.65;;;13.60;99.90;;;;;;5060817;28;20533;-67
2022/11/03 09:21:59;;;;;;;17.05;3.15;;;13.80;99.90;;;;;;5054881;28;20132;-67
2022/11/03 09:24:26;;;;;;;15.10;3.95;;;13.80;99.90;;;;;;5063648;28;20036;-67
2022/11/03 09:26:52;;;;;;;13.05;4.25;;;13.70;99.90;;;;;;5064287;28;20491;-67
2022/11/03 09:29:18;;;;;;;15.52;3.42;;;13.70;99.90;;;;;;5061363;28;20029;-67
2022/11/03 09:31:43;;;;;;;15.27;3.28;;;13.70;99.90;;;;;;5059338;28;20012;-67
2022/11/03 09:34:09;;;;;;;11.05;3.15;;;13.80;99.90;;;;;;5053565;28;20068;-67
2022/11/03 09:36:35;;;;;;;9.95;3.42;;;13.90;99.90;;;;;;5056065;28;20024;-67
2022/11/03 09:39:01;;;;;;;18.85;4.00;;;13.80;99.90;;;;;;5061258;28;20033;-68
2022/11/03 09:41:27;;;;;;;14.20;3.70;;;13.90;99.90;;;;;;5061203;28;20441;-67
2022/11/03 09:43:55;;;;;;;19.15;3.88;;;13.90;99.90;;;;;;5057730;28;20158;-67
2022/11/03 09:46:21;;;;;;;11.43;3.30;;;13.80;99.90;;;;;;5057188;28;20020;-67
2022/11/03 09:48:46;;;;;;;10.13;3.15;;;13.70;99.90;;;;;;5054802;28;20024;-67
2022/11/03 09:51:19;;;;;;;11.68;2.78;;;13.70;99.90;;;;;;5061898;28;20362;-67
2022/11/03 09:53:46;;;;;;;12.90;2.83;;;13.70;99.90;;;;;;5066116;28;20020;-67
2022/11/03 09:56:12;;;;;;;18.67;3.40;;;13.80;99.90;;;;;;5061032;28;20021;-67
2022/11/03 09:58:38;;;;;;;21.10;3.50;;;13.90;99.90;;;;;;5054642;28;20028;-67
2022/11/03 10:01:04;;;;;;;10.77;3.42;;;13.90;99.90;;;;;;5053152;28;20043;-67
2022/11/03 10:03:30;;;;;;;17.95;3.58;;;13.90;99.90;;;;;;5055870;28;20028;-67
2022/11/03 10:05:56;;;;;;;10.82;2.88;;;14.00;99.90;;;;;;5065968;28;20450;-67
2022/11/03 10:08:31;;;;;;;12.40;3.25;;;14.10;99.90;;;;;;5057329;28;20064;-67
2022/11/03 10:10:57;;;;;;;15.20;3.00;;;14.10;99.90;;;;;;5054949;28;20474;-67
2022/11/03 10:13:35;;;;;;;21.33;3.42;;;14.20;99.90;;;;;;5056312;28;20055;-67
2022/11/03 10:16:04;;;;;;;9.45;2.83;;;14.20;99.90;;;;;;5065186;28;20094;-67
2022/11/03 10:18:31;;;;;;;18.05;3.58;;;14.30;99.90;;;;;;5041693;28;20407;-67
2022/11/03 10:21:02;;;;;;;14.82;3.28;;;14.40;99.90;;;;;;5056640;28;20385;-68
2022/11/03 10:23:27;;;;;;;15.98;3.88;;;14.40;99.90;;;;;;5054606;28;20029;-67
2022/11/03 10:26:08;;;;;;;16.60;3.90;;;14.50;99.90;;;;;;5058563;28;20090;-67
2022/11/03 10:28:33;;;;;;;11.68;3.78;;;14.60;99.90;;;;;;5062130;28;20032;-67
2022/11/03 10:31:17;;;;;;;13.65;2.80;;;14.70;99.90;;;;;;5057939;28;20029;-67
2022/11/03 10:33:52;;;;;;;15.75;2.88;;;14.70;99.90;;;;;;5050831;28;20108;-67
2022/11/03 10:36:18;;;;;;;17.95;3.40;;;14.90;99.90;;;;;;5052793;28;20037;-67
2022/11/03 10:38:44;;;;;;;9.52;2.97;;;14.90;99.90;;;;;;5054638;28;20059;-67
2022/11/03 10:41:16;;;;;;;14.23;3.75;;;15.20;99.90;;;;;;5052485;28;20437;-67
2022/11/03 10:43:57;;;;;;;8.48;2.80;;;15.30;99.90;;;;;;5049118;28;20094;-67
2022/11/03 10:46:22;;;;;;;17.52;3.22;;;15.20;99.90;;;;;;5059141;28;20073;-67
2022/11/03 10:49:15;;;;;;;11.63;2.45;;;15.30;99.90;;;;;;5066555;28;20040;-67
2022/11/03 10:51:44;;;;;;;8.77;2.83;;;15.50;99.90;;;;;;5047339;28;20075;-67
2022/11/03 10:54:13;;;;;;;14.50;3.08;;;15.40;99.90;;;;;;5057267;28;20119;-68
2022/11/03 10:56:40;;;;;;;14.57;3.40;;;15.50;99.90;;;;;;5057009;28;20209;-67
2022/11/03 10:59:21;;;;;;;16.90;3.03;;;15.60;99.90;;;;;;5054870;28;20036;-68
2022/11/03 11:01:47;;;;;;;14.60;2.83;;;15.50;99.90;;;;;;5055569;28;20337;-67
2022/11/03 11:04:17;;;;;;;14.13;3.42;;;15.60;99.90;;;;;;5067272;28;20028;-67
2022/11/03 11:06:44;;;;;;;12.48;3.17;;;15.80;99.90;;;;;;5057236;28;20033;-67
2022/11/03 11:09:25;;;;;;;12.18;2.38;;;15.90;99.90;;;;;;5055132;28;20034;-67
2022/11/03 11:12:13;;;;;;;6.82;2.47;;;16.10;99.90;;;;;;5043527;28;20119;-67
2022/11/03 11:14:50;;;;;;;12.10;2.25;;;16.20;99.90;;;;;;5065490;28;20136;-67
2022/11/03 11:17:42;;;;;;;13.68;2.03;;;16.10;99.90;;;;;;5059821;28;20029;-67
2022/11/03 11:20:23;;;;;;;;;;;16.10;99.90;;;;;;5050797;28;20033;-67
2022/11/03 11:22:49;;;;;;;6.90;2.38;;;16.00;99.90;;;;;;5048393;28;20288;-67
2022/11/03 11:25:18;;;;;;;10.48;2.80;;;16.10;99.90;;;;;;5050270;28;20020;-67
2022/11/03 11:27:43;;;;;;;13.35;3.08;;;16.10;99.90;;;;;;5050611;28;20112;-67
2022/11/03 11:30:18;;;;;;;13.00;2.83;;;16.10;99.90;;;;;;5049380;28;20132;-67
2022/11/03 11:32:44;;;;;;;11.13;2.20;;;16.30;99.90;;;;;;5055041;28;20025;-67
2022/11/03 11:35:37;;;;;;;9.18;2.30;;;16.40;99.90;;;;;;5053310;28;20526;-67
2022/11/03 11:38:41;;;;;;;8.68;2.60;;;16.40;99.90;;;;;;5057961;28;20033;-68
2022/11/03 11:41:06;;;;;;;10.43;3.15;;;16.60;99.90;;;;;;5050249;28;20032;-67
2022/11/03 11:43:32;;;;;;;7.10;2.13;;;16.60;99.90;;;;;;5040024;28;20112;-67
2022/11/03 11:46:23;;;;;;;8.05;2.53;;;16.50;99.90;;;;;;5041719;28;20044;-68
2022/11/03 11:49:09;;;;;;;8.18;2.70;;;16.40;99.90;;;;;;5051827;28;20040;-68
2022/11/03 11:51:36;;;;;;;8.23;1.95;;;16.40;99.90;;;;;;5051356;28;20078;-69
2022/11/03 11:54:14;;;;;;;10.98;2.40;;;16.50;99.90;;;;;;5052311;28;20021;-68
2022/11/03 11:56:45;;;;;;;7.47;2.53;;;16.40;99.90;;;;;;5039494;28;20017;-68
2022/11/03 11:59:20;;;;;;;9.13;1.63;;;16.30;99.90;;;;;;5052392;28;20071;-68
2022/11/03 12:01:50;;;;;;;8.50;2.15;;;16.40;99.90;;;;;;5052286;28;20033;-68
2022/11/03 12:04:24;;;;;;;8.55;2.28;;;16.40;99.90;;;;;;5051852;28;20048;-68
2022/11/03 12:06:50;;;;;;;6.70;2.00;;;16.60;99.90;;;;;;5039018;28;20025;-69
2022/11/03 12:09:18;;;;;;;8.52;2.17;;;16.70;99.90;;;;;;5053643;28;20377;-68
2022/11/03 12:11:45;;;;;;;7.00;2.03;;;16.50;99.90;;;;;;5055913;28;20017;-68
2022/11/03 12:14:36;;;;;;;4.97;1.80;;;16.30;99.90;;;;;;5056080;28;20032;-68
2022/11/03 12:17:17;;;;;;;9.57;2.47;;;16.20;99.90;;;;;;5042987;28;20036;-68
2022/11/03 12:19:48;;;;;;;6.78;2.10;;;16.10;99.90;;;;;;5055923;28;20527;-68
2022/11/03 12:22:23;;;;;;;7.75;2.17;;;16.10;99.90;;;;;;5055903;28;20041;-68
2022/11/03 12:24:54;;;;;;;5.65;2.28;;;16.20;99.90;;;;;;5055910;28;20132;-68
2022/11/03 12:27:25;;;;;;;6.20;2.13;;;16.30;99.90;;;;;;5055777;28;20035;-68
2022/11/03 12:29:53;;;;;;;6.72;1.77;;;16.50;99.90;;;;;;5055756;28;20499;-68
2022/11/03 12:32:19;;;;;;;11.52;2.60;;;16.50;99.90;;;;;;5055199;28;20013;-69
2022/11/03 12:34:45;;;;;;;9.15;2.17;;;16.90;99.90;;;;;;5055776;28;20047;-68
2022/11/03 12:37:11;;;;;;;8.27;2.20;;;16.70;99.90;;;;;;5055498;28;20107;-68
2022/11/03 12:39:37;;;;;;;8.75;1.80;;;16.80;99.90;;;;;;5055505;28;20040;-68
2022/11/03 12:42:04;;;;;;;7.38;1.67;;;16.70;99.90;;;;;;5055159;28;20158;-68
2022/11/03 12:44:30;;;;;;;8.00;2.13;;;16.70;99.90;;;;;;5054281;28;20032;-68
2022/11/03 12:46:56;;;;;;;11.00;2.03;;;16.80;99.90;;;;;;5055226;28;20074;-68
2022/11/03 12:49:22;;;;;;;6.35;1.60;;;16.80;99.90;;;;;;5055502;28;20544;-68
2022/11/03 12:51:47;;;;;;;10.25;2.40;;;16.70;99.90;;;;;;5055230;28;20021;-68
2022/11/03 12:54:14;;;;;;;13.55;2.25;;;16.80;99.90;;;;;;5053928;28;20044;-68
2022/11/03 12:56:40;;;;;;;7.35;2.03;;;16.70;99.90;;;;;;5055256;28;20033;-68
2022/11/03 12:59:06;;;;;;;4.93;1.80;;;16.70;99.90;;;;;;5055483;28;20040;-68
2022/11/03 13:01:33;;;;;;;8.13;1.42;;;16.50;99.90;;;;;;5053566;28;20036;-68
2022/11/03 13:03:59;;;;;;;7.88;2.25;;;16.40;99.90;;;;;;5054947;28;20041;-68
2022/11/03 13:06:25;;;;;;;9.05;2.00;;;16.50;99.90;;;;;;5055172;28;20098;-68
2022/11/03 13:08:51;;;;;;;6.43;1.70;;;16.30;99.90;;;;;;5055127;28;20465;-68
2022/11/03 13:14:03;;;;;;;7.25;1.95;;;16.20;99.90;;;;;;5054677;28;20033;-68